sensor_id;sensor_type;location;lat;lon;timestamp;P1;durP1;ratioP1;P2;durP2;ratioP2
30515;SDS011;17297;54.022;10.760;2022-12-17T00:02:18;17.52;;;10.52;;
30515;SDS011;17297;54.022;10.760;2022-12-17T00:05:02;18.80;;;11.05;;
30515;SDS011;17297;54.022;10.760;2022-12-17T00:07:46;16.08;;;9.90;;
30515;SDS011;17297;54.022;10.760;2022-12-17T00:10:30;21.92;;;13.05;;
30515;SDS011;17297;54.022;10.760;2022-12-17T00:13:20;14.95;;;8.88;;
30515;SDS011;17297;54.022;10.760;2022-12-17T00:16:05;20.23;;;10.85;;
30515;SDS011;17297;54.022;10.760;2022-12-17T00:18:50;16.02;;;9.57;;
30515;SDS011;17297;54.022;10.760;2022-12-17T00:21:34;13.52;;;8.20;;
30515;SDS011;17297;54.022;10.760;2022-12-17T00:24:17;10.27;;;7.03;;
30515;SDS011;17297;54.022;10.760;2022-12-17T00:27:01;10.23;;;6.55;;
30515;SDS011;17297;54.022;10.760;2022-12-17T00:29:46;10.38;;;6.47;;
30515;SDS011;17297;54.022;10.760;2022-12-17T00:32:29;10.13;;;6.80;;
30515;SDS011;17297;54.022;10.760;2022-12-17T00:35:13;10.32;;;6.65;;
30515;SDS011;17297;54.022;10.760;2022-12-17T00:37:58;12.10;;;7.65;;
30515;SDS011;17297;54.022;10.760;2022-12-17T00:40:41;11.95;;;6.90;;
30515;SDS011;17297;54.022;10.760;2022-12-17T00:43:26;11.05;;;7.25;;
30515;SDS011;17297;54.022;10.760;2022-12-17T00:46:10;11.60;;;7.57;;
30515;SDS011;17297;54.022;10.760;2022-12-17T00:48:54;12.32;;;7.72;;
30515;SDS011;17297;54.022;10.760;2022-12-17T00:51:38;11.80;;;8.07;;
30515;SDS011;17297;54.022;10.760;2022-12-17T00:54:21;10.43;;;6.95;;
30515;SDS011;17297;54.022;10.760;2022-12-17T00:57:05;12.25;;;6.85;;
30515;SDS011;17297;54.022;10.760;2022-12-17T00:59:51;11.40;;;8.15;;
30515;SDS011;17297;54.022;10.760;2022-12-17T01:02:35;10.73;;;7.25;;
30515;SDS011;17297;54.022;10.760;2022-12-17T01:05:20;11.98;;;8.50;;
30515;SDS011;17297;54.022;10.760;2022-12-17T01:08:10;13.40;;;9.00;;
30515;SDS011;17297;54.022;10.760;2022-12-17T01:10:59;14.75;;;9.02;;
30515;SDS011;17297;54.022;10.760;2022-12-17T01:13:44;17.10;;;10.18;;
30515;SDS011;17297;54.022;10.760;2022-12-17T01:16:27;14.23;;;10.18;;
30515;SDS011;17297;54.022;10.760;2022-12-17T01:19:11;15.13;;;11.13;;
30515;SDS011;17297;54.022;10.760;2022-12-17T01:21:55;16.73;;;11.40;;
30515;SDS011;17297;54.022;10.760;2022-12-17T01:24:39;18.17;;;11.20;;
30515;SDS011;17297;54.022;10.760;2022-12-17T01:27:25;16.00;;;9.85;;
30515;SDS011;17297;54.022;10.760;2022-12-17T01:30:09;14.68;;;9.80;;
30515;SDS011;17297;54.022;10.760;2022-12-17T01:32:59;17.80;;;10.75;;
30515;SDS011;17297;54.022;10.760;2022-12-17T01:35:43;15.45;;;9.77;;
30515;SDS011;17297;54.022;10.760;2022-12-17T01:38:27;14.60;;;9.90;;
30515;SDS011;17297;54.022;10.760;2022-12-17T01:41:11;17.25;;;11.20;;
30515;SDS011;17297;54.022;10.760;2022-12-17T01:47:29;19.33;;;11.90;;
30515;SDS011;17297;54.022;10.760;2022-12-17T01:50:30;17.73;;;10.05;;
30515;SDS011;17297;54.022;10.760;2022-12-17T01:53:19;17.80;;;10.73;;
30515;SDS011;17297;54.022;10.760;2022-12-17T01:56:07;17.25;;;11.85;;
30515;SDS011;17297;54.022;10.760;2022-12-17T01:58:51;23.88;;;14.02;;
30515;SDS011;17297;54.022;10.760;2022-12-17T02:01:35;19.10;;;12.05;;
30515;SDS011;17297;54.022;10.760;2022-12-17T02:04:21;19.20;;;12.00;;
30515;SDS011;17297;54.022;10.760;2022-12-17T02:07:08;18.58;;;11.77;;
30515;SDS011;17297;54.022;10.760;2022-12-17T02:10:03;20.70;;;12.52;;
30515;SDS011;17297;54.022;10.760;2022-12-17T02:13:20;19.10;;;11.82;;
30515;SDS011;17297;54.022;10.760;2022-12-17T02:16:19;15.38;;;11.52;;
30515;SDS011;17297;54.022;10.760;2022-12-17T02:19:16;18.02;;;11.27;;
30515;SDS011;17297;54.022;10.760;2022-12-17T02:22:20;18.85;;;10.98;;
30515;SDS011;17297;54.022;10.760;2022-12-17T02:28:25;16.40;;;10.93;;
30515;SDS011;17297;54.022;10.760;2022-12-17T02:31:11;18.27;;;11.55;;
30515;SDS011;17297;54.022;10.760;2022-12-17T02:33:56;18.63;;;11.18;;
30515;SDS011;17297;54.022;10.760;2022-12-17T02:36:41;20.35;;;12.18;;
30515;SDS011;17297;54.022;10.760;2022-12-17T02:39:25;21.45;;;12.15;;
30515;SDS011;17297;54.022;10.760;2022-12-17T02:42:10;17.67;;;11.40;;
30515;SDS011;17297;54.022;10.760;2022-12-17T02:44:54;18.10;;;12.50;;
30515;SDS011;17297;54.022;10.760;2022-12-17T02:47:39;22.17;;;12.82;;
30515;SDS011;17297;54.022;10.760;2022-12-17T02:50:23;23.50;;;12.90;;
30515;SDS011;17297;54.022;10.760;2022-12-17T02:53:07;25.17;;;15.95;;
30515;SDS011;17297;54.022;10.760;2022-12-17T02:55:51;19.10;;;11.23;;
30515;SDS011;17297;54.022;10.760;2022-12-17T02:58:36;18.13;;;13.03;;
30515;SDS011;17297;54.022;10.760;2022-12-17T03:01:21;22.70;;;14.50;;
30515;SDS011;17297;54.022;10.760;2022-12-17T03:04:24;20.05;;;12.30;;
30515;SDS011;17297;54.022;10.760;2022-12-17T03:07:08;23.95;;;14.18;;
30515;SDS011;17297;54.022;10.760;2022-12-17T03:09:52;21.13;;;12.57;;
30515;SDS011;17297;54.022;10.760;2022-12-17T03:12:40;22.08;;;14.68;;
30515;SDS011;17297;54.022;10.760;2022-12-17T03:15:24;18.08;;;12.45;;
30515;SDS011;17297;54.022;10.760;2022-12-17T03:18:08;22.42;;;14.35;;
30515;SDS011;17297;54.022;10.760;2022-12-17T03:20:52;21.55;;;13.18;;
30515;SDS011;17297;54.022;10.760;2022-12-17T03:23:36;16.35;;;10.90;;
30515;SDS011;17297;54.022;10.760;2022-12-17T03:26:20;16.40;;;10.75;;
30515;SDS011;17297;54.022;10.760;2022-12-17T03:29:05;16.42;;;12.07;;
30515;SDS011;17297;54.022;10.760;2022-12-17T03:31:48;18.35;;;12.18;;
30515;SDS011;17297;54.022;10.760;2022-12-17T03:34:32;16.67;;;11.38;;
30515;SDS011;17297;54.022;10.760;2022-12-17T03:37:16;16.77;;;11.50;;
30515;SDS011;17297;54.022;10.760;2022-12-17T03:40:00;18.15;;;12.05;;
30515;SDS011;17297;54.022;10.760;2022-12-17T03:42:44;20.42;;;11.32;;
30515;SDS011;17297;54.022;10.760;2022-12-17T03:45:51;16.30;;;11.48;;
30515;SDS011;17297;54.022;10.760;2022-12-17T03:48:43;22.08;;;13.05;;
30515;SDS011;17297;54.022;10.760;2022-12-17T03:51:27;20.08;;;11.95;;
30515;SDS011;17297;54.022;10.760;2022-12-17T03:54:11;17.75;;;12.30;;
30515;SDS011;17297;54.022;10.760;2022-12-17T03:56:55;22.90;;;15.23;;
30515;SDS011;17297;54.022;10.760;2022-12-17T03:59:59;18.35;;;12.57;;
30515;SDS011;17297;54.022;10.760;2022-12-17T04:02:43;19.10;;;12.05;;
30515;SDS011;17297;54.022;10.760;2022-12-17T04:05:27;19.05;;;12.20;;
30515;SDS011;17297;54.022;10.760;2022-12-17T04:08:11;21.40;;;13.80;;
30515;SDS011;17297;54.022;10.760;2022-12-17T04:10:55;20.90;;;14.55;;
30515;SDS011;17297;54.022;10.760;2022-12-17T04:13:39;22.15;;;14.13;;
30515;SDS011;17297;54.022;10.760;2022-12-17T04:16:22;23.38;;;13.68;;
30515;SDS011;17297;54.022;10.760;2022-12-17T04:19:06;24.58;;;14.75;;
30515;SDS011;17297;54.022;10.760;2022-12-17T04:21:50;23.23;;;14.18;;
30515;SDS011;17297;54.022;10.760;2022-12-17T04:24:34;23.10;;;13.88;;
30515;SDS011;17297;54.022;10.760;2022-12-17T04:27:18;21.58;;;15.02;;
30515;SDS011;17297;54.022;10.760;2022-12-17T04:30:02;21.00;;;14.43;;
30515;SDS011;17297;54.022;10.760;2022-12-17T04:32:46;26.10;;;14.68;;
30515;SDS011;17297;54.022;10.760;2022-12-17T04:35:30;25.67;;;15.10;;
30515;SDS011;17297;54.022;10.760;2022-12-17T04:38:14;24.10;;;15.00;;
30515;SDS011;17297;54.022;10.760;2022-12-17T04:40:58;20.95;;;13.65;;
30515;SDS011;17297;54.022;10.760;2022-12-17T04:43:41;25.45;;;14.73;;
30515;SDS011;17297;54.022;10.760;2022-12-17T04:46:25;25.40;;;13.70;;
30515;SDS011;17297;54.022;10.760;2022-12-17T04:49:08;23.55;;;15.23;;
30515;SDS011;17297;54.022;10.760;2022-12-17T04:51:52;25.02;;;14.35;;
30515;SDS011;17297;54.022;10.760;2022-12-17T04:54:36;29.23;;;15.85;;
30515;SDS011;17297;54.022;10.760;2022-12-17T04:57:20;24.25;;;14.85;;
30515;SDS011;17297;54.022;10.760;2022-12-17T05:00:04;30.35;;;16.85;;
30515;SDS011;17297;54.022;10.760;2022-12-17T05:02:49;28.40;;;18.02;;
30515;SDS011;17297;54.022;10.760;2022-12-17T05:05:34;28.88;;;16.65;;
30515;SDS011;17297;54.022;10.760;2022-12-17T05:08:18;28.23;;;18.67;;
30515;SDS011;17297;54.022;10.760;2022-12-17T05:11:02;21.73;;;15.23;;
30515;SDS011;17297;54.022;10.760;2022-12-17T05:13:47;27.95;;;16.55;;
30515;SDS011;17297;54.022;10.760;2022-12-17T05:16:47;23.02;;;14.18;;
30515;SDS011;17297;54.022;10.760;2022-12-17T05:19:31;22.98;;;15.02;;
30515;SDS011;17297;54.022;10.760;2022-12-17T05:22:15;24.23;;;14.85;;
30515;SDS011;17297;54.022;10.760;2022-12-17T05:24:59;26.52;;;15.73;;
30515;SDS011;17297;54.022;10.760;2022-12-17T05:27:44;29.38;;;16.55;;
30515;SDS011;17297;54.022;10.760;2022-12-17T05:30:29;23.67;;;15.73;;
30515;SDS011;17297;54.022;10.760;2022-12-17T05:33:13;28.65;;;14.57;;
30515;SDS011;17297;54.022;10.760;2022-12-17T05:36:00;23.33;;;15.20;;
30515;SDS011;17297;54.022;10.760;2022-12-17T05:38:45;28.15;;;16.17;;
30515;SDS011;17297;54.022;10.760;2022-12-17T05:41:30;24.35;;;14.75;;
30515;SDS011;17297;54.022;10.760;2022-12-17T05:44:14;25.02;;;15.98;;
30515;SDS011;17297;54.022;10.760;2022-12-17T05:46:58;28.52;;;17.45;;
30515;SDS011;17297;54.022;10.760;2022-12-17T05:50:02;28.17;;;16.08;;
30515;SDS011;17297;54.022;10.760;2022-12-17T05:52:46;22.88;;;13.95;;
30515;SDS011;17297;54.022;10.760;2022-12-17T05:55:30;24.60;;;15.88;;
30515;SDS011;17297;54.022;10.760;2022-12-17T05:58:14;25.15;;;15.93;;
30515;SDS011;17297;54.022;10.760;2022-12-17T06:00:59;26.15;;;17.63;;
30515;SDS011;17297;54.022;10.760;2022-12-17T06:04:03;22.15;;;14.38;;
30515;SDS011;17297;54.022;10.760;2022-12-17T06:06:47;26.45;;;14.52;;
30515;SDS011;17297;54.022;10.760;2022-12-17T06:09:30;28.58;;;15.07;;
30515;SDS011;17297;54.022;10.760;2022-12-17T06:12:14;28.08;;;15.45;;
30515;SDS011;17297;54.022;10.760;2022-12-17T06:14:58;21.25;;;14.90;;
30515;SDS011;17297;54.022;10.760;2022-12-17T06:17:42;29.05;;;16.85;;
30515;SDS011;17297;54.022;10.760;2022-12-17T06:20:35;24.80;;;14.77;;
30515;SDS011;17297;54.022;10.760;2022-12-17T06:23:19;22.63;;;14.70;;
30515;SDS011;17297;54.022;10.760;2022-12-17T06:26:02;29.63;;;15.77;;
30515;SDS011;17297;54.022;10.760;2022-12-17T06:28:46;26.42;;;16.25;;
30515;SDS011;17297;54.022;10.760;2022-12-17T06:31:30;24.77;;;15.63;;
30515;SDS011;17297;54.022;10.760;2022-12-17T06:34:14;27.23;;;16.27;;
30515;SDS011;17297;54.022;10.760;2022-12-17T06:36:58;24.17;;;15.00;;
30515;SDS011;17297;54.022;10.760;2022-12-17T06:39:42;24.90;;;14.13;;
30515;SDS011;17297;54.022;10.760;2022-12-17T06:42:25;22.58;;;14.13;;
30515;SDS011;17297;54.022;10.760;2022-12-17T06:45:17;25.15;;;12.82;;
30515;SDS011;17297;54.022;10.760;2022-12-17T06:48:02;23.38;;;15.10;;
30515;SDS011;17297;54.022;10.760;2022-12-17T06:50:50;22.20;;;14.07;;
30515;SDS011;17297;54.022;10.760;2022-12-17T06:53:36;26.48;;;16.00;;
30515;SDS011;17297;54.022;10.760;2022-12-17T06:56:20;25.65;;;15.18;;
30515;SDS011;17297;54.022;10.760;2022-12-17T06:59:04;26.38;;;15.40;;
30515;SDS011;17297;54.022;10.760;2022-12-17T07:01:50;24.90;;;15.32;;
30515;SDS011;17297;54.022;10.760;2022-12-17T07:04:34;25.67;;;16.23;;
30515;SDS011;17297;54.022;10.760;2022-12-17T07:07:18;24.50;;;14.23;;
30515;SDS011;17297;54.022;10.760;2022-12-17T07:10:02;24.58;;;15.82;;
30515;SDS011;17297;54.022;10.760;2022-12-17T07:12:46;23.88;;;14.48;;
30515;SDS011;17297;54.022;10.760;2022-12-17T07:15:38;20.60;;;13.65;;
30515;SDS011;17297;54.022;10.760;2022-12-17T07:18:21;23.90;;;15.18;;
30515;SDS011;17297;54.022;10.760;2022-12-17T07:21:05;27.75;;;15.40;;
30515;SDS011;17297;54.022;10.760;2022-12-17T07:23:49;24.95;;;13.95;;
30515;SDS011;17297;54.022;10.760;2022-12-17T07:26:33;22.13;;;14.25;;
30515;SDS011;17297;54.022;10.760;2022-12-17T07:29:16;26.38;;;14.50;;
30515;SDS011;17297;54.022;10.760;2022-12-17T07:32:00;22.67;;;14.90;;
30515;SDS011;17297;54.022;10.760;2022-12-17T07:34:44;22.35;;;13.93;;
30515;SDS011;17297;54.022;10.760;2022-12-17T07:37:28;27.42;;;14.88;;
30515;SDS011;17297;54.022;10.760;2022-12-17T07:40:12;25.27;;;15.48;;
30515;SDS011;17297;54.022;10.760;2022-12-17T07:42:56;24.40;;;13.88;;
30515;SDS011;17297;54.022;10.760;2022-12-17T07:45:40;26.13;;;15.05;;
30515;SDS011;17297;54.022;10.760;2022-12-17T07:48:24;23.67;;;15.18;;
30515;SDS011;17297;54.022;10.760;2022-12-17T07:51:07;22.25;;;14.13;;
30515;SDS011;17297;54.022;10.760;2022-12-17T07:53:51;18.75;;;13.45;;
30515;SDS011;17297;54.022;10.760;2022-12-17T07:56:35;20.75;;;13.98;;
30515;SDS011;17297;54.022;10.760;2022-12-17T07:59:19;21.92;;;13.20;;
30515;SDS011;17297;54.022;10.760;2022-12-17T08:02:02;25.15;;;14.75;;
30515;SDS011;17297;54.022;10.760;2022-12-17T08:04:46;22.17;;;14.77;;
30515;SDS011;17297;54.022;10.760;2022-12-17T08:07:30;24.90;;;14.98;;
30515;SDS011;17297;54.022;10.760;2022-12-17T08:10:14;22.45;;;14.30;;
30515;SDS011;17297;54.022;10.760;2022-12-17T08:12:59;25.33;;;13.80;;
30515;SDS011;17297;54.022;10.760;2022-12-17T08:15:44;23.75;;;13.82;;
30515;SDS011;17297;54.022;10.760;2022-12-17T08:18:31;25.23;;;14.55;;
30515;SDS011;17297;54.022;10.760;2022-12-17T08:21:15;20.65;;;13.55;;
30515;SDS011;17297;54.022;10.760;2022-12-17T08:23:58;24.17;;;14.98;;
30515;SDS011;17297;54.022;10.760;2022-12-17T08:26:42;23.75;;;13.65;;
30515;SDS011;17297;54.022;10.760;2022-12-17T08:29:26;27.60;;;16.92;;
30515;SDS011;17297;54.022;10.760;2022-12-17T08:32:11;22.73;;;14.95;;
30515;SDS011;17297;54.022;10.760;2022-12-17T08:34:54;27.55;;;14.60;;
30515;SDS011;17297;54.022;10.760;2022-12-17T08:37:38;26.92;;;15.57;;
30515;SDS011;17297;54.022;10.760;2022-12-17T08:40:22;25.23;;;16.63;;
30515;SDS011;17297;54.022;10.760;2022-12-17T08:43:06;22.05;;;13.43;;
30515;SDS011;17297;54.022;10.760;2022-12-17T08:45:50;31.88;;;15.55;;
30515;SDS011;17297;54.022;10.760;2022-12-17T08:48:35;19.05;;;13.30;;
30515;SDS011;17297;54.022;10.760;2022-12-17T08:51:20;22.88;;;13.82;;
30515;SDS011;17297;54.022;10.760;2022-12-17T08:54:05;24.77;;;16.02;;
30515;SDS011;17297;54.022;10.760;2022-12-17T08:56:49;21.17;;;13.95;;
30515;SDS011;17297;54.022;10.760;2022-12-17T08:59:34;22.25;;;12.48;;
30515;SDS011;17297;54.022;10.760;2022-12-17T09:02:18;20.90;;;14.98;;
30515;SDS011;17297;54.022;10.760;2022-12-17T09:05:02;23.08;;;14.00;;
30515;SDS011;17297;54.022;10.760;2022-12-17T09:07:46;21.45;;;13.00;;
30515;SDS011;17297;54.022;10.760;2022-12-17T09:10:30;21.10;;;13.13;;
30515;SDS011;17297;54.022;10.760;2022-12-17T09:13:14;20.50;;;13.50;;
30515;SDS011;17297;54.022;10.760;2022-12-17T09:15:57;19.98;;;13.95;;
30515;SDS011;17297;54.022;10.760;2022-12-17T09:18:41;23.48;;;14.55;;
30515;SDS011;17297;54.022;10.760;2022-12-17T09:21:26;25.10;;;13.75;;
30515;SDS011;17297;54.022;10.760;2022-12-17T09:24:13;22.25;;;13.90;;
30515;SDS011;17297;54.022;10.760;2022-12-17T09:26:56;19.58;;;13.10;;
30515;SDS011;17297;54.022;10.760;2022-12-17T09:29:40;21.60;;;14.88;;
30515;SDS011;17297;54.022;10.760;2022-12-17T09:32:24;23.27;;;15.00;;
30515;SDS011;17297;54.022;10.760;2022-12-17T09:35:08;25.70;;;15.10;;
30515;SDS011;17297;54.022;10.760;2022-12-17T09:37:52;18.30;;;13.82;;
30515;SDS011;17297;54.022;10.760;2022-12-17T09:40:37;22.23;;;13.93;;
30515;SDS011;17297;54.022;10.760;2022-12-17T09:43:36;18.75;;;13.07;;
30515;SDS011;17297;54.022;10.760;2022-12-17T09:46:30;19.40;;;13.25;;
30515;SDS011;17297;54.022;10.760;2022-12-17T09:49:21;25.83;;;12.88;;
30515;SDS011;17297;54.022;10.760;2022-12-17T09:52:28;16.92;;;11.23;;
30515;SDS011;17297;54.022;10.760;2022-12-17T09:55:23;21.60;;;13.07;;
30515;SDS011;17297;54.022;10.760;2022-12-17T09:58:21;22.85;;;12.82;;
30515;SDS011;17297;54.022;10.760;2022-12-17T10:01:14;18.97;;;12.30;;
30515;SDS011;17297;54.022;10.760;2022-12-17T10:04:22;18.27;;;12.27;;
30515;SDS011;17297;54.022;10.760;2022-12-17T10:07:16;19.48;;;13.38;;
30515;SDS011;17297;54.022;10.760;2022-12-17T10:10:16;19.77;;;12.63;;
30515;SDS011;17297;54.022;10.760;2022-12-17T10:13:09;17.40;;;12.07;;
30515;SDS011;17297;54.022;10.760;2022-12-17T10:15:54;20.20;;;14.07;;
30515;SDS011;17297;54.022;10.760;2022-12-17T10:18:38;22.00;;;12.77;;
30515;SDS011;17297;54.022;10.760;2022-12-17T10:21:22;20.42;;;12.68;;
30515;SDS011;17297;54.022;10.760;2022-12-17T10:24:10;16.58;;;12.02;;
30515;SDS011;17297;54.022;10.760;2022-12-17T10:26:54;24.05;;;13.80;;
30515;SDS011;17297;54.022;10.760;2022-12-17T10:29:39;17.45;;;12.40;;
30515;SDS011;17297;54.022;10.760;2022-12-17T10:32:25;18.05;;;12.18;;
30515;SDS011;17297;54.022;10.760;2022-12-17T10:35:13;17.67;;;11.57;;
30515;SDS011;17297;54.022;10.760;2022-12-17T10:38:20;22.33;;;13.13;;
30515;SDS011;17297;54.022;10.760;2022-12-17T10:41:18;16.85;;;12.80;;
30515;SDS011;17297;54.022;10.760;2022-12-17T10:44:18;18.27;;;10.80;;
30515;SDS011;17297;54.022;10.760;2022-12-17T10:47:03;16.38;;;11.68;;
30515;SDS011;17297;54.022;10.760;2022-12-17T10:49:55;19.05;;;13.45;;
30515;SDS011;17297;54.022;10.760;2022-12-17T10:52:44;18.60;;;11.48;;
30515;SDS011;17297;54.022;10.760;2022-12-17T10:55:30;15.52;;;10.57;;
30515;SDS011;17297;54.022;10.760;2022-12-17T10:58:17;15.05;;;10.35;;
30515;SDS011;17297;54.022;10.760;2022-12-17T11:01:04;13.82;;;10.05;;
30515;SDS011;17297;54.022;10.760;2022-12-17T11:03:53;16.95;;;11.63;;
30515;SDS011;17297;54.022;10.760;2022-12-17T11:06:43;19.95;;;12.38;;
30515;SDS011;17297;54.022;10.760;2022-12-17T11:12:21;15.73;;;10.48;;
30515;SDS011;17297;54.022;10.760;2022-12-17T11:15:18;16.33;;;11.75;;
30515;SDS011;17297;54.022;10.760;2022-12-17T11:18:07;20.63;;;12.03;;
30515;SDS011;17297;54.022;10.760;2022-12-17T11:21:22;16.40;;;10.35;;
30515;SDS011;17297;54.022;10.760;2022-12-17T11:24:12;16.75;;;10.43;;
30515;SDS011;17297;54.022;10.760;2022-12-17T11:27:01;17.63;;;10.50;;
30515;SDS011;17297;54.022;10.760;2022-12-17T11:29:49;14.43;;;9.90;;
30515;SDS011;17297;54.022;10.760;2022-12-17T11:39:24;18.00;;;11.30;;
30515;SDS011;17297;54.022;10.760;2022-12-17T11:42:20;13.23;;;10.35;;
30515;SDS011;17297;54.022;10.760;2022-12-17T11:48:27;20.23;;;12.15;;
30515;SDS011;17297;54.022;10.760;2022-12-17T11:51:26;15.45;;;10.52;;
30515;SDS011;17297;54.022;10.760;2022-12-17T11:54:23;20.85;;;11.35;;
30515;SDS011;17297;54.022;10.760;2022-12-17T12:00:05;14.70;;;8.98;;
30515;SDS011;17297;54.022;10.760;2022-12-17T12:03:14;15.38;;;11.32;;
30515;SDS011;17297;54.022;10.760;2022-12-17T12:06:02;13.63;;;9.68;;
30515;SDS011;17297;54.022;10.760;2022-12-17T12:15:21;13.10;;;9.60;;
30515;SDS011;17297;54.022;10.760;2022-12-17T12:18:22;13.45;;;9.50;;
30515;SDS011;17297;54.022;10.760;2022-12-17T12:24:10;12.45;;;10.35;;
30515;SDS011;17297;54.022;10.760;2022-12-17T12:36:13;14.68;;;9.30;;
30515;SDS011;17297;54.022;10.760;2022-12-17T12:38:59;14.68;;;10.18;;
30515;SDS011;17297;54.022;10.760;2022-12-17T12:41:52;16.45;;;9.65;;
30515;SDS011;17297;54.022;10.760;2022-12-17T12:47:51;14.80;;;10.07;;
30515;SDS011;17297;54.022;10.760;2022-12-17T12:50:49;13.80;;;9.48;;
30515;SDS011;17297;54.022;10.760;2022-12-17T12:53:58;13.70;;;10.85;;
30515;SDS011;17297;54.022;10.760;2022-12-17T12:56:44;13.98;;;9.15;;
30515;SDS011;17297;54.022;10.760;2022-12-17T12:59:29;15.38;;;11.18;;
30515;SDS011;17297;54.022;10.760;2022-12-17T13:08:03;14.30;;;11.73;;
30515;SDS011;17297;54.022;10.760;2022-12-17T13:10:42;18.35;;;10.20;;
30515;SDS011;17297;54.022;10.760;2022-12-17T13:13:15;15.93;;;10.38;;
30515;SDS011;17297;54.022;10.760;2022-12-17T13:16:24;16.48;;;11.18;;
30515;SDS011;17297;54.022;10.760;2022-12-17T13:21:52;14.43;;;10.70;;
30515;SDS011;17297;54.022;10.760;2022-12-17T13:24:24;16.45;;;10.35;;
30515;SDS011;17297;54.022;10.760;2022-12-17T13:26:51;13.63;;;9.55;;
30515;SDS011;17297;54.022;10.760;2022-12-17T13:29:19;11.32;;;8.65;;
30515;SDS011;17297;54.022;10.760;2022-12-17T13:31:57;15.48;;;9.18;;
30515;SDS011;17297;54.022;10.760;2022-12-17T13:40:35;12.27;;;9.00;;
30515;SDS011;17297;54.022;10.760;2022-12-17T13:43:14;12.52;;;9.60;;
30515;SDS011;17297;54.022;10.760;2022-12-17T13:45:41;15.30;;;10.05;;
30515;SDS011;17297;54.022;10.760;2022-12-17T13:48:15;15.90;;;10.35;;
30515;SDS011;17297;54.022;10.760;2022-12-17T13:50:52;11.43;;;9.18;;
30515;SDS011;17297;54.022;10.760;2022-12-17T13:53:28;12.73;;;8.18;;
30515;SDS011;17297;54.022;10.760;2022-12-17T13:55:58;14.07;;;9.32;;
30515;SDS011;17297;54.022;10.760;2022-12-17T13:58:25;16.27;;;9.50;;
30515;SDS011;17297;54.022;10.760;2022-12-17T14:05:56;9.60;;;7.78;;
30515;SDS011;17297;54.022;10.760;2022-12-17T14:08:22;13.02;;;9.05;;
30515;SDS011;17297;54.022;10.760;2022-12-17T14:10:53;11.68;;;8.73;;
30515;SDS011;17297;54.022;10.760;2022-12-17T14:13:43;12.57;;;10.07;;
30515;SDS011;17297;54.022;10.760;2022-12-17T14:16:14;13.93;;;9.25;;
30515;SDS011;17297;54.022;10.760;2022-12-17T14:18:42;13.20;;;10.05;;
30515;SDS011;17297;54.022;10.760;2022-12-17T14:21:11;21.27;;;9.27;;
30515;SDS011;17297;54.022;10.760;2022-12-17T14:23:37;17.35;;;8.82;;
30515;SDS011;17297;54.022;10.760;2022-12-17T14:26:04;18.85;;;10.30;;
30515;SDS011;17297;54.022;10.760;2022-12-17T14:28:33;16.17;;;11.05;;
30515;SDS011;17297;54.022;10.760;2022-12-17T14:33:40;15.20;;;10.98;;
30515;SDS011;17297;54.022;10.760;2022-12-17T14:36:20;16.30;;;10.40;;
30515;SDS011;17297;54.022;10.760;2022-12-17T14:38:51;13.57;;;10.23;;
30515;SDS011;17297;54.022;10.760;2022-12-17T14:41:25;18.23;;;10.65;;
30515;SDS011;17297;54.022;10.760;2022-12-17T14:44:24;12.98;;;10.07;;
30515;SDS011;17297;54.022;10.760;2022-12-17T14:47:05;14.07;;;9.68;;
30515;SDS011;17297;54.022;10.760;2022-12-17T14:49:36;12.20;;;9.65;;
30515;SDS011;17297;54.022;10.760;2022-12-17T14:52:12;17.75;;;10.63;;
30515;SDS011;17297;54.022;10.760;2022-12-17T14:54:43;15.18;;;10.80;;
30515;SDS011;17297;54.022;10.760;2022-12-17T14:57:16;20.23;;;12.13;;
30515;SDS011;17297;54.022;10.760;2022-12-17T14:59:44;16.77;;;11.48;;
30515;SDS011;17297;54.022;10.760;2022-12-17T15:02:20;15.88;;;11.45;;
30515;SDS011;17297;54.022;10.760;2022-12-17T15:04:50;14.82;;;9.98;;
30515;SDS011;17297;54.022;10.760;2022-12-17T15:07:21;17.02;;;11.43;;
30515;SDS011;17297;54.022;10.760;2022-12-17T15:09:49;17.42;;;11.98;;
30515;SDS011;17297;54.022;10.760;2022-12-17T15:12:16;15.57;;;10.25;;
30515;SDS011;17297;54.022;10.760;2022-12-17T15:14:42;17.77;;;11.80;;
30515;SDS011;17297;54.022;10.760;2022-12-17T15:17:07;17.20;;;11.18;;
30515;SDS011;17297;54.022;10.760;2022-12-17T15:19:33;14.88;;;9.68;;
30515;SDS011;17297;54.022;10.760;2022-12-17T15:21:58;13.82;;;10.15;;
30515;SDS011;17297;54.022;10.760;2022-12-17T15:24:23;13.70;;;9.48;;
30515;SDS011;17297;54.022;10.760;2022-12-17T15:26:49;14.65;;;10.20;;
30515;SDS011;17297;54.022;10.760;2022-12-17T15:29:14;15.10;;;11.07;;
30515;SDS011;17297;54.022;10.760;2022-12-17T15:31:39;16.35;;;10.88;;
30515;SDS011;17297;54.022;10.760;2022-12-17T15:34:05;15.85;;;10.60;;
30515;SDS011;17297;54.022;10.760;2022-12-17T15:36:30;15.15;;;9.10;;
30515;SDS011;17297;54.022;10.760;2022-12-17T15:38:56;18.10;;;10.93;;
30515;SDS011;17297;54.022;10.760;2022-12-17T15:41:22;14.65;;;10.05;;
30515;SDS011;17297;54.022;10.760;2022-12-17T15:44:16;16.73;;;10.23;;
30515;SDS011;17297;54.022;10.760;2022-12-17T15:46:42;14.50;;;10.48;;
30515;SDS011;17297;54.022;10.760;2022-12-17T15:49:07;15.65;;;11.07;;
30515;SDS011;17297;54.022;10.760;2022-12-17T15:51:32;16.17;;;10.98;;
30515;SDS011;17297;54.022;10.760;2022-12-17T15:53:58;14.43;;;9.98;;
30515;SDS011;17297;54.022;10.760;2022-12-17T15:56:24;16.90;;;10.40;;
30515;SDS011;17297;54.022;10.760;2022-12-17T15:58:51;15.15;;;10.00;;
30515;SDS011;17297;54.022;10.760;2022-12-17T16:01:17;15.73;;;9.75;;
30515;SDS011;17297;54.022;10.760;2022-12-17T16:03:43;16.05;;;10.82;;
30515;SDS011;17297;54.022;10.760;2022-12-17T16:06:09;18.70;;;10.27;;
30515;SDS011;17297;54.022;10.760;2022-12-17T16:08:36;15.32;;;9.27;;
30515;SDS011;17297;54.022;10.760;2022-12-17T16:11:09;13.23;;;9.77;;
30515;SDS011;17297;54.022;10.760;2022-12-17T16:13:35;17.30;;;11.20;;
30515;SDS011;17297;54.022;10.760;2022-12-17T16:16:02;13.75;;;9.98;;
30515;SDS011;17297;54.022;10.760;2022-12-17T16:18:28;16.85;;;12.15;;
30515;SDS011;17297;54.022;10.760;2022-12-17T16:20:53;12.52;;;10.43;;
30515;SDS011;17297;54.022;10.760;2022-12-17T16:23:19;13.88;;;9.82;;
30515;SDS011;17297;54.022;10.760;2022-12-17T16:25:53;14.68;;;9.38;;
30515;SDS011;17297;54.022;10.760;2022-12-17T16:28:20;14.20;;;9.18;;
30515;SDS011;17297;54.022;10.760;2022-12-17T16:30:56;16.65;;;10.75;;
30515;SDS011;17297;54.022;10.760;2022-12-17T16:33:22;12.40;;;8.95;;
30515;SDS011;17297;54.022;10.760;2022-12-17T16:35:51;14.88;;;9.63;;
30515;SDS011;17297;54.022;10.760;2022-12-17T16:38:18;13.52;;;9.95;;
30515;SDS011;17297;54.022;10.760;2022-12-17T16:40:45;12.18;;;8.20;;
30515;SDS011;17297;54.022;10.760;2022-12-17T16:43:10;18.92;;;11.15;;
30515;SDS011;17297;54.022;10.760;2022-12-17T16:45:38;14.98;;;9.30;;
30515;SDS011;17297;54.022;10.760;2022-12-17T16:48:11;13.88;;;9.95;;
30515;SDS011;17297;54.022;10.760;2022-12-17T16:50:36;16.70;;;11.45;;